sensor_id;sensor_type;location;lat;lon;timestamp;P1;durP1;ratioP1;P2;durP2;ratioP2
51006;SDS011;37034;47.886;-3.904;2023-09-19T00:01:38;13.63;;;2.40;;
51006;SDS011;37034;47.886;-3.904;2023-09-19T00:04:05;11.43;;;2.65;;
51006;SDS011;37034;47.886;-3.904;2023-09-19T00:06:38;13.95;;;2.78;;
51006;SDS011;37034;47.886;-3.904;2023-09-19T00:09:04;19.20;;;2.97;;
51006;SDS011;37034;47.886;-3.904;2023-09-19T00:11:30;19.10;;;2.85;;
51006;SDS011;37034;47.886;-3.904;2023-09-19T00:13:56;19.20;;;2.38;;
51006;SDS011;37034;47.886;-3.904;2023-09-19T00:16:24;17.40;;;3.00;;
51006;SDS011;37034;47.886;-3.904;2023-09-19T00:21:16;13.40;;;2.30;;
51006;SDS011;37034;47.886;-3.904;2023-09-19T00:23:41;11.82;;;2.83;;
51006;SDS011;37034;47.886;-3.904;2023-09-19T00:26:07;15.93;;;2.70;;
51006;SDS011;37034;47.886;-3.904;2023-09-19T00:28:33;16.02;;;2.50;;
51006;SDS011;37034;47.886;-3.904;2023-09-19T00:31:00;16.63;;;2.53;;
51006;SDS011;37034;47.886;-3.904;2023-09-19T00:35:54;17.15;;;2.22;;
51006;SDS011;37034;47.886;-3.904;2023-09-19T00:38:21;20.13;;;3.42;;
51006;SDS011;37034;47.886;-3.904;2023-09-19T00:40:51;16.27;;;2.72;;
51006;SDS011;37034;47.886;-3.904;2023-09-19T00:45:44;18.77;;;2.58;;
51006;SDS011;37034;47.886;-3.904;2023-09-19T00:48:13;22.92;;;3.00;;
51006;SDS011;37034;47.886;-3.904;2023-09-19T00:50:43;17.83;;;3.42;;
51006;SDS011;37034;47.886;-3.904;2023-09-19T00:53:13;17.58;;;2.95;;
51006;SDS011;37034;47.886;-3.904;2023-09-19T00:55:43;21.13;;;3.53;;
51006;SDS011;37034;47.886;-3.904;2023-09-19T00:58:10;21.20;;;3.45;;
51006;SDS011;37034;47.886;-3.904;2023-09-19T01:00:36;19.65;;;2.75;;
51006;SDS011;37034;47.886;-3.904;2023-09-19T01:03:03;21.15;;;3.78;;
51006;SDS011;37034;47.886;-3.904;2023-09-19T01:05:31;20.27;;;3.70;;
51006;SDS011;37034;47.886;-3.904;2023-09-19T01:07:58;21.08;;;3.35;;
51006;SDS011;37034;47.886;-3.904;2023-09-19T01:10:24;21.30;;;3.40;;
51006;SDS011;37034;47.886;-3.904;2023-09-19T01:15:49;12.10;;;2.72;;
51006;SDS011;37034;47.886;-3.904;2023-09-19T01:30:10;21.65;;;3.50;;
51006;SDS011;37034;47.886;-3.904;2023-09-19T01:32:40;15.98;;;2.80;;
51006;SDS011;37034;47.886;-3.904;2023-09-19T01:35:07;18.63;;;2.80;;
51006;SDS011;37034;47.886;-3.904;2023-09-19T01:37:37;18.23;;;3.17;;
51006;SDS011;37034;47.886;-3.904;2023-09-19T01:40:06;22.77;;;4.35;;
51006;SDS011;37034;47.886;-3.904;2023-09-19T01:50:52;20.88;;;3.20;;
51006;SDS011;37034;47.886;-3.904;2023-09-19T01:53:49;18.23;;;3.15;;
51006;SDS011;37034;47.886;-3.904;2023-09-19T01:56:11;21.10;;;3.40;;
51006;SDS011;37034;47.886;-3.904;2023-09-19T01:58:51;15.98;;;2.65;;
51006;SDS011;37034;47.886;-3.904;2023-09-19T02:01:22;22.42;;;2.92;;
51006;SDS011;37034;47.886;-3.904;2023-09-19T02:03:49;25.88;;;3.63;;
51006;SDS011;37034;47.886;-3.904;2023-09-19T02:06:16;24.85;;;3.85;;
51006;SDS011;37034;47.886;-3.904;2023-09-19T02:08:43;22.92;;;3.55;;
51006;SDS011;37034;47.886;-3.904;2023-09-19T02:11:10;22.05;;;3.90;;
51006;SDS011;37034;47.886;-3.904;2023-09-19T02:13:36;23.77;;;3.50;;
51006;SDS011;37034;47.886;-3.904;2023-09-19T02:16:02;24.40;;;3.78;;
51006;SDS011;37034;47.886;-3.904;2023-09-19T02:20:55;23.75;;;4.00;;
51006;SDS011;37034;47.886;-3.904;2023-09-19T02:23:22;18.17;;;3.40;;
51006;SDS011;37034;47.886;-3.904;2023-09-19T02:25:52;23.58;;;3.83;;
51006;SDS011;37034;47.886;-3.904;2023-09-19T02:28:22;26.55;;;3.90;;
51006;SDS011;37034;47.886;-3.904;2023-09-19T02:30:48;20.08;;;3.58;;
51006;SDS011;37034;47.886;-3.904;2023-09-19T02:33:15;18.10;;;3.30;;
51006;SDS011;37034;47.886;-3.904;2023-09-19T02:35:42;21.13;;;3.65;;
51006;SDS011;37034;47.886;-3.904;2023-09-19T02:38:07;17.70;;;3.42;;
51006;SDS011;37034;47.886;-3.904;2023-09-19T02:40:36;16.58;;;2.92;;
51006;SDS011;37034;47.886;-3.904;2023-09-19T02:43:02;19.92;;;3.30;;
51006;SDS011;37034;47.886;-3.904;2023-09-19T02:45:28;13.32;;;2.35;;
51006;SDS011;37034;47.886;-3.904;2023-09-19T02:47:55;15.00;;;2.88;;
51006;SDS011;37034;47.886;-3.904;2023-09-19T02:50:21;15.85;;;2.85;;
51006;SDS011;37034;47.886;-3.904;2023-09-19T02:52:47;16.70;;;2.53;;
51006;SDS011;37034;47.886;-3.904;2023-09-19T02:55:16;16.90;;;2.83;;
51006;SDS011;37034;47.886;-3.904;2023-09-19T02:57:49;16.20;;;2.38;;
51006;SDS011;37034;47.886;-3.904;2023-09-19T03:00:17;19.33;;;3.42;;
51006;SDS011;37034;47.886;-3.904;2023-09-19T03:02:47;21.52;;;2.90;;
51006;SDS011;37034;47.886;-3.904;2023-09-19T03:05:13;20.27;;;2.90;;
51006;SDS011;37034;47.886;-3.904;2023-09-19T03:07:39;17.25;;;3.40;;
51006;SDS011;37034;47.886;-3.904;2023-09-19T03:10:08;17.52;;;2.70;;
51006;SDS011;37034;47.886;-3.904;2023-09-19T03:12:34;13.68;;;3.08;;
51006;SDS011;37034;47.886;-3.904;2023-09-19T03:15:00;15.63;;;2.97;;
51006;SDS011;37034;47.886;-3.904;2023-09-19T03:17:27;14.77;;;2.55;;
51006;SDS011;37034;47.886;-3.904;2023-09-19T03:19:52;12.87;;;2.90;;
51006;SDS011;37034;47.886;-3.904;2023-09-19T03:22:19;12.50;;;2.60;;
51006;SDS011;37034;47.886;-3.904;2023-09-19T03:24:44;25.00;;;3.35;;
51006;SDS011;37034;47.886;-3.904;2023-09-19T03:27:11;16.20;;;2.78;;
51006;SDS011;37034;47.886;-3.904;2023-09-19T03:29:39;18.70;;;3.08;;
51006;SDS011;37034;47.886;-3.904;2023-09-19T03:32:05;16.33;;;2.67;;
51006;SDS011;37034;47.886;-3.904;2023-09-19T03:34:31;17.98;;;2.83;;
51006;SDS011;37034;47.886;-3.904;2023-09-19T03:36:56;15.15;;;3.08;;
51006;SDS011;37034;47.886;-3.904;2023-09-19T03:39:22;24.13;;;4.25;;
51006;SDS011;37034;47.886;-3.904;2023-09-19T03:41:48;20.23;;;3.08;;
51006;SDS011;37034;47.886;-3.904;2023-09-19T03:44:14;21.70;;;2.95;;
51006;SDS011;37034;47.886;-3.904;2023-09-19T03:46:40;17.85;;;3.33;;
51006;SDS011;37034;47.886;-3.904;2023-09-19T03:49:06;16.95;;;3.20;;
51006;SDS011;37034;47.886;-3.904;2023-09-19T03:51:31;21.02;;;3.65;;
51006;SDS011;37034;47.886;-3.904;2023-09-19T03:53:59;24.40;;;4.00;;
51006;SDS011;37034;47.886;-3.904;2023-09-19T03:56:25;25.92;;;3.80;;
51006;SDS011;37034;47.886;-3.904;2023-09-19T03:58:50;21.45;;;3.47;;
51006;SDS011;37034;47.886;-3.904;2023-09-19T04:01:16;22.80;;;3.35;;
51006;SDS011;37034;47.886;-3.904;2023-09-19T04:03:43;21.05;;;3.35;;
51006;SDS011;37034;47.886;-3.904;2023-09-19T04:06:15;24.00;;;4.05;;
51006;SDS011;37034;47.886;-3.904;2023-09-19T04:08:41;22.38;;;3.83;;
51006;SDS011;37034;47.886;-3.904;2023-09-19T04:11:08;22.70;;;4.05;;
51006;SDS011;37034;47.886;-3.904;2023-09-19T04:13:34;26.55;;;4.57;;
51006;SDS011;37034;47.886;-3.904;2023-09-19T04:15:59;23.77;;;3.20;;
51006;SDS011;37034;47.886;-3.904;2023-09-19T04:18:25;25.52;;;4.00;;
51006;SDS011;37034;47.886;-3.904;2023-09-19T04:20:51;24.00;;;3.90;;
51006;SDS011;37034;47.886;-3.904;2023-09-19T04:23:17;28.05;;;4.45;;
51006;SDS011;37034;47.886;-3.904;2023-09-19T04:25:47;20.52;;;3.25;;
51006;SDS011;37034;47.886;-3.904;2023-09-19T04:28:13;19.48;;;4.72;;
51006;SDS011;37034;47.886;-3.904;2023-09-19T04:30:39;17.92;;;3.88;;
51006;SDS011;37034;47.886;-3.904;2023-09-19T04:33:07;28.02;;;4.32;;
51006;SDS011;37034;47.886;-3.904;2023-09-19T04:35:33;23.70;;;4.30;;
51006;SDS011;37034;47.886;-3.904;2023-09-19T04:40:25;22.70;;;3.30;;
51006;SDS011;37034;47.886;-3.904;2023-09-19T04:42:54;22.70;;;3.38;;
51006;SDS011;37034;47.886;-3.904;2023-09-19T04:45:27;30.63;;;4.68;;
51006;SDS011;37034;47.886;-3.904;2023-09-19T04:47:54;17.77;;;3.90;;
51006;SDS011;37034;47.886;-3.904;2023-09-19T04:50:21;22.48;;;3.95;;
51006;SDS011;37034;47.886;-3.904;2023-09-19T04:52:51;21.38;;;3.42;;
51006;SDS011;37034;47.886;-3.904;2023-09-19T04:55:17;23.42;;;3.50;;
51006;SDS011;37034;47.886;-3.904;2023-09-19T04:57:44;24.23;;;3.40;;
51006;SDS011;37034;47.886;-3.904;2023-09-19T05:00:16;22.05;;;3.40;;
51006;SDS011;37034;47.886;-3.904;2023-09-19T05:02:43;21.27;;;3.70;;
51006;SDS011;37034;47.886;-3.904;2023-09-19T05:05:09;20.90;;;3.10;;
51006;SDS011;37034;47.886;-3.904;2023-09-19T05:10:02;23.20;;;3.80;;
51006;SDS011;37034;47.886;-3.904;2023-09-19T05:12:31;23.00;;;3.42;;
51006;SDS011;37034;47.886;-3.904;2023-09-19T05:15:04;24.83;;;3.60;;
51006;SDS011;37034;47.886;-3.904;2023-09-19T05:17:34;25.92;;;4.22;;
51006;SDS011;37034;47.886;-3.904;2023-09-19T05:20:01;30.35;;;3.92;;
51006;SDS011;37034;47.886;-3.904;2023-09-19T05:22:40;30.92;;;4.28;;
51006;SDS011;37034;47.886;-3.904;2023-09-19T05:25:08;21.65;;;3.85;;
51006;SDS011;37034;47.886;-3.904;2023-09-19T05:29:59;24.88;;;4.15;;
51006;SDS011;37034;47.886;-3.904;2023-09-19T05:32:25;21.95;;;3.80;;
51006;SDS011;37034;47.886;-3.904;2023-09-19T05:34:51;25.33;;;4.10;;
51006;SDS011;37034;47.886;-3.904;2023-09-19T05:37:21;26.52;;;4.18;;
51006;SDS011;37034;47.886;-3.904;2023-09-19T05:39:48;20.60;;;3.63;;
51006;SDS011;37034;47.886;-3.904;2023-09-19T05:42:14;22.95;;;3.78;;
51006;SDS011;37034;47.886;-3.904;2023-09-19T05:44:40;24.60;;;4.07;;
51006;SDS011;37034;47.886;-3.904;2023-09-19T05:47:05;29.00;;;4.13;;
51006;SDS011;37034;47.886;-3.904;2023-09-19T05:49:34;16.63;;;3.67;;
51006;SDS011;37034;47.886;-3.904;2023-09-19T05:52:03;25.92;;;3.90;;
51006;SDS011;37034;47.886;-3.904;2023-09-19T05:54:32;21.75;;;3.97;;
51006;SDS011;37034;47.886;-3.904;2023-09-19T05:56:59;18.52;;;3.00;;
51006;SDS011;37034;47.886;-3.904;2023-09-19T05:59:26;23.70;;;4.05;;
51006;SDS011;37034;47.886;-3.904;2023-09-19T06:01:52;24.42;;;3.53;;
51006;SDS011;37034;47.886;-3.904;2023-09-19T06:04:18;23.20;;;3.30;;
51006;SDS011;37034;47.886;-3.904;2023-09-19T06:06:46;19.58;;;3.38;;
51006;SDS011;37034;47.886;-3.904;2023-09-19T06:09:13;20.65;;;3.08;;
51006;SDS011;37034;47.886;-3.904;2023-09-19T06:11:41;23.90;;;3.92;;
51006;SDS011;37034;47.886;-3.904;2023-09-19T06:14:07;23.55;;;3.67;;
51006;SDS011;37034;47.886;-3.904;2023-09-19T06:16:32;24.23;;;4.00;;
51006;SDS011;37034;47.886;-3.904;2023-09-19T06:18:58;20.07;;;4.47;;
51006;SDS011;37034;47.886;-3.904;2023-09-19T06:23:51;20.00;;;3.50;;
51006;SDS011;37034;47.886;-3.904;2023-09-19T06:26:18;26.45;;;3.55;;
51006;SDS011;37034;47.886;-3.904;2023-09-19T06:28:43;28.10;;;3.72;;
51006;SDS011;37034;47.886;-3.904;2023-09-19T06:31:09;19.98;;;3.53;;
51006;SDS011;37034;47.886;-3.904;2023-09-19T06:33:38;21.23;;;3.47;;
51006;SDS011;37034;47.886;-3.904;2023-09-19T06:36:04;22.13;;;3.97;;
51006;SDS011;37034;47.886;-3.904;2023-09-19T06:38:31;20.15;;;3.55;;
51006;SDS011;37034;47.886;-3.904;2023-09-19T06:40:59;23.42;;;4.68;;
51006;SDS011;37034;47.886;-3.904;2023-09-19T06:43:26;28.70;;;4.45;;
51006;SDS011;37034;47.886;-3.904;2023-09-19T06:45:52;28.58;;;3.80;;
51006;SDS011;37034;47.886;-3.904;2023-09-19T06:48:19;23.27;;;4.18;;
51006;SDS011;37034;47.886;-3.904;2023-09-19T06:53:13;23.33;;;3.85;;
51006;SDS011;37034;47.886;-3.904;2023-09-19T06:55:39;20.67;;;4.13;;
51006;SDS011;37034;47.886;-3.904;2023-09-19T06:58:05;26.67;;;4.00;;
51006;SDS011;37034;47.886;-3.904;2023-09-19T07:00:31;26.23;;;3.90;;
51006;SDS011;37034;47.886;-3.904;2023-09-19T07:03:02;24.83;;;4.32;;
51006;SDS011;37034;47.886;-3.904;2023-09-19T07:05:29;26.20;;;3.95;;
51006;SDS011;37034;47.886;-3.904;2023-09-19T07:07:56;26.65;;;4.63;;
51006;SDS011;37034;47.886;-3.904;2023-09-19T07:10:29;23.85;;;3.95;;
51006;SDS011;37034;47.886;-3.904;2023-09-19T07:13:05;19.77;;;4.57;;
51006;SDS011;37034;47.886;-3.904;2023-09-19T07:15:34;24.33;;;4.13;;
51006;SDS011;37034;47.886;-3.904;2023-09-19T07:18:26;30.23;;;4.20;;
51006;SDS011;37034;47.886;-3.904;2023-09-19T07:20:56;26.85;;;3.65;;
51006;SDS011;37034;47.886;-3.904;2023-09-19T07:23:26;27.13;;;4.68;;
51006;SDS011;37034;47.886;-3.904;2023-09-19T07:25:52;29.88;;;4.40;;
51006;SDS011;37034;47.886;-3.904;2023-09-19T07:28:22;23.05;;;4.20;;
51006;SDS011;37034;47.886;-3.904;2023-09-19T07:30:47;21.73;;;4.57;;
51006;SDS011;37034;47.886;-3.904;2023-09-19T07:33:13;25.60;;;5.35;;
51006;SDS011;37034;47.886;-3.904;2023-09-19T07:35:39;26.35;;;4.65;;
51006;SDS011;37034;47.886;-3.904;2023-09-19T07:38:05;23.02;;;3.60;;
51006;SDS011;37034;47.886;-3.904;2023-09-19T07:40:31;26.45;;;4.60;;
51006;SDS011;37034;47.886;-3.904;2023-09-19T07:42:57;25.40;;;4.85;;
51006;SDS011;37034;47.886;-3.904;2023-09-19T07:45:28;27.50;;;4.60;;
51006;SDS011;37034;47.886;-3.904;2023-09-19T07:47:55;28.75;;;4.68;;
51006;SDS011;37034;47.886;-3.904;2023-09-19T07:50:21;26.10;;;4.70;;
51006;SDS011;37034;47.886;-3.904;2023-09-19T07:52:47;25.00;;;4.25;;
51006;SDS011;37034;47.886;-3.904;2023-09-19T07:55:15;27.90;;;4.30;;
51006;SDS011;37034;47.886;-3.904;2023-09-19T07:57:45;20.98;;;4.22;;
51006;SDS011;37034;47.886;-3.904;2023-09-19T08:00:11;27.52;;;5.40;;
51006;SDS011;37034;47.886;-3.904;2023-09-19T08:05:05;35.65;;;5.47;;
51006;SDS011;37034;47.886;-3.904;2023-09-19T08:10:01;25.75;;;4.85;;
51006;SDS011;37034;47.886;-3.904;2023-09-19T08:12:27;24.05;;;4.72;;
51006;SDS011;37034;47.886;-3.904;2023-09-19T08:14:55;25.42;;;4.50;;
51006;SDS011;37034;47.886;-3.904;2023-09-19T08:17:20;25.98;;;5.28;;
51006;SDS011;37034;47.886;-3.904;2023-09-19T08:19:48;28.77;;;5.15;;
51006;SDS011;37034;47.886;-3.904;2023-09-19T08:22:17;20.92;;;4.75;;
51006;SDS011;37034;47.886;-3.904;2023-09-19T08:24:44;23.02;;;5.00;;
51006;SDS011;37034;47.886;-3.904;2023-09-19T08:27:11;20.88;;;4.82;;
51006;SDS011;37034;47.886;-3.904;2023-09-19T08:29:37;23.02;;;4.68;;
51006;SDS011;37034;47.886;-3.904;2023-09-19T08:32:03;22.90;;;4.70;;
51006;SDS011;37034;47.886;-3.904;2023-09-19T08:34:29;30.88;;;4.93;;
51006;SDS011;37034;47.886;-3.904;2023-09-19T08:36:57;23.48;;;4.78;;
51006;SDS011;37034;47.886;-3.904;2023-09-19T08:39:23;29.27;;;5.20;;
51006;SDS011;37034;47.886;-3.904;2023-09-19T08:41:59;23.58;;;5.55;;
51006;SDS011;37034;47.886;-3.904;2023-09-19T08:44:26;26.73;;;4.88;;
51006;SDS011;37034;47.886;-3.904;2023-09-19T08:47:05;27.42;;;4.80;;
51006;SDS011;37034;47.886;-3.904;2023-09-19T08:49:41;30.80;;;5.80;;
51006;SDS011;37034;47.886;-3.904;2023-09-19T08:52:25;27.73;;;5.68;;
51006;SDS011;37034;47.886;-3.904;2023-09-19T08:54:52;25.98;;;4.88;;
51006;SDS011;37034;47.886;-3.904;2023-09-19T08:57:22;24.02;;;4.55;;
51006;SDS011;37034;47.886;-3.904;2023-09-19T08:59:48;24.75;;;4.95;;
51006;SDS011;37034;47.886;-3.904;2023-09-19T09:02:15;29.05;;;5.10;;
51006;SDS011;37034;47.886;-3.904;2023-09-19T09:04:44;29.38;;;5.35;;
51006;SDS011;37034;47.886;-3.904;2023-09-19T09:07:12;23.00;;;4.97;;
51006;SDS011;37034;47.886;-3.904;2023-09-19T09:12:08;20.20;;;3.88;;
51006;SDS011;37034;47.886;-3.904;2023-09-19T09:14:39;27.55;;;4.93;;
51006;SDS011;37034;47.886;-3.904;2023-09-19T09:17:14;27.35;;;4.43;;
51006;SDS011;37034;47.886;-3.904;2023-09-19T09:19:42;25.08;;;5.25;;
51006;SDS011;37034;47.886;-3.904;2023-09-19T09:22:08;22.48;;;5.03;;
51006;SDS011;37034;47.886;-3.904;2023-09-19T09:24:35;29.30;;;5.03;;
51006;SDS011;37034;47.886;-3.904;2023-09-19T09:27:06;22.00;;;4.57;;
51006;SDS011;37034;47.886;-3.904;2023-09-19T09:29:42;23.48;;;4.60;;
51006;SDS011;37034;47.886;-3.904;2023-09-19T09:32:17;25.77;;;4.90;;
51006;SDS011;37034;47.886;-3.904;2023-09-19T09:34:43;28.65;;;5.38;;
51006;SDS011;37034;47.886;-3.904;2023-09-19T09:37:13;34.85;;;6.13;;
51006;SDS011;37034;47.886;-3.904;2023-09-19T09:39:40;29.75;;;5.35;;
51006;SDS011;37034;47.886;-3.904;2023-09-19T09:42:32;16.20;;;4.00;;
51006;SDS011;37034;47.886;-3.904;2023-09-19T09:47:41;21.58;;;4.80;;
51006;SDS011;37034;47.886;-3.904;2023-09-19T09:50:26;32.63;;;5.97;;
51006;SDS011;37034;47.886;-3.904;2023-09-19T09:53:32;24.00;;;5.38;;
51006;SDS011;37034;47.886;-3.904;2023-09-19T09:55:58;31.80;;;6.30;;
51006;SDS011;37034;47.886;-3.904;2023-09-19T09:58:30;26.85;;;5.75;;
51006;SDS011;37034;47.886;-3.904;2023-09-19T10:00:59;23.15;;;5.03;;
51006;SDS011;37034;47.886;-3.904;2023-09-19T10:03:37;21.52;;;4.75;;
51006;SDS011;37034;47.886;-3.904;2023-09-19T10:06:12;22.95;;;5.82;;
51006;SDS011;37034;47.886;-3.904;2023-09-19T10:09:01;28.85;;;5.07;;
51006;SDS011;37034;47.886;-3.904;2023-09-19T10:11:46;26.83;;;5.05;;
51006;SDS011;37034;47.886;-3.904;2023-09-19T10:14:18;26.73;;;5.07;;
51006;SDS011;37034;47.886;-3.904;2023-09-19T10:16:49;27.40;;;5.13;;
51006;SDS011;37034;47.886;-3.904;2023-09-19T10:19:16;27.60;;;5.50;;
51006;SDS011;37034;47.886;-3.904;2023-09-19T10:21:55;28.35;;;5.65;;
51006;SDS011;37034;47.886;-3.904;2023-09-19T10:24:22;26.65;;;5.90;;
51006;SDS011;37034;47.886;-3.904;2023-09-19T10:26:50;25.27;;;5.72;;
51006;SDS011;37034;47.886;-3.904;2023-09-19T10:31:42;29.77;;;6.97;;
51006;SDS011;37034;47.886;-3.904;2023-09-19T10:34:12;23.13;;;5.75;;
51006;SDS011;37034;47.886;-3.904;2023-09-19T10:36:39;34.05;;;7.03;;
51006;SDS011;37034;47.886;-3.904;2023-09-19T10:39:10;31.38;;;7.30;;
51006;SDS011;37034;47.886;-3.904;2023-09-19T10:41:38;36.42;;;6.97;;
51006;SDS011;37034;47.886;-3.904;2023-09-19T10:44:05;31.13;;;7.38;;
51006;SDS011;37034;47.886;-3.904;2023-09-19T10:46:34;30.30;;;7.20;;
51006;SDS011;37034;47.886;-3.904;2023-09-19T10:49:00;27.90;;;7.90;;
51006;SDS011;37034;47.886;-3.904;2023-09-19T10:51:28;25.40;;;6.18;;
51006;SDS011;37034;47.886;-3.904;2023-09-19T10:53:59;30.88;;;8.20;;
51006;SDS011;37034;47.886;-3.904;2023-09-19T10:56:38;29.90;;;7.07;;
51006;SDS011;37034;47.886;-3.904;2023-09-19T10:59:10;26.08;;;6.72;;
51006;SDS011;37034;47.886;-3.904;2023-09-19T11:15:06;26.27;;;6.10;;
51006;SDS011;37034;47.886;-3.904;2023-09-19T11:17:39;27.27;;;6.53;;
51006;SDS011;37034;47.886;-3.904;2023-09-19T11:23:23;28.73;;;5.90;;
51006;SDS011;37034;47.886;-3.904;2023-09-19T11:25:42;30.60;;;6.88;;
51006;SDS011;37034;47.886;-3.904;2023-09-19T11:30:42;26.10;;;5.93;;
51006;SDS011;37034;47.886;-3.904;2023-09-19T11:46:34;36.25;;;7.78;;
51006;SDS011;37034;47.886;-3.904;2023-09-19T11:49:24;33.15;;;6.57;;
51006;SDS011;37034;47.886;-3.904;2023-09-19T11:51:55;31.33;;;6.45;;
51006;SDS011;37034;47.886;-3.904;2023-09-19T11:56:51;27.05;;;6.75;;
51006;SDS011;37034;47.886;-3.904;2023-09-19T11:59:22;31.42;;;7.25;;
51006;SDS011;37034;47.886;-3.904;2023-09-19T12:01:53;29.92;;;7.60;;
51006;SDS011;37034;47.886;-3.904;2023-09-19T12:07:08;46.88;;;8.90;;
51006;SDS011;37034;47.886;-3.904;2023-09-19T12:09:48;36.65;;;7.65;;
51006;SDS011;37034;47.886;-3.904;2023-09-19T12:12:24;32.00;;;7.80;;
51006;SDS011;37034;47.886;-3.904;2023-09-19T12:14:52;32.67;;;7.35;;
51006;SDS011;37034;47.886;-3.904;2023-09-19T12:17:19;34.05;;;8.02;;
51006;SDS011;37034;47.886;-3.904;2023-09-19T12:19:51;26.88;;;6.60;;
51006;SDS011;37034;47.886;-3.904;2023-09-19T12:22:17;32.55;;;6.72;;
51006;SDS011;37034;47.886;-3.904;2023-09-19T12:24:45;30.40;;;7.00;;
51006;SDS011;37034;47.886;-3.904;2023-09-19T12:27:11;36.10;;;7.43;;
51006;SDS011;37034;47.886;-3.904;2023-09-19T12:29:45;34.50;;;7.28;;
51006;SDS011;37034;47.886;-3.904;2023-09-19T12:32:14;22.00;;;5.75;;
51006;SDS011;37034;47.886;-3.904;2023-09-19T12:34:42;31.73;;;6.38;;
51006;SDS011;37034;47.886;-3.904;2023-09-19T12:37:15;30.05;;;7.20;;
51006;SDS011;37034;47.886;-3.904;2023-09-19T12:39:46;25.65;;;6.18;;
51006;SDS011;37034;47.886;-3.904;2023-09-19T12:42:14;30.35;;;7.03;;
51006;SDS011;37034;47.886;-3.904;2023-09-19T12:45:02;26.45;;;7.07;;
51006;SDS011;37034;47.886;-3.904;2023-09-19T12:47:27;27.80;;;6.63;;
51006;SDS011;37034;47.886;-3.904;2023-09-19T12:50:06;28.10;;;6.50;;
51006;SDS011;37034;47.886;-3.904;2023-09-19T12:52:38;31.08;;;6.55;;
51006;SDS011;37034;47.886;-3.904;2023-09-19T12:55:09;27.77;;;6.53;;
51006;SDS011;37034;47.886;-3.904;2023-09-19T13:00:43;30.02;;;6.25;;
51006;SDS011;37034;47.886;-3.904;2023-09-19T13:05:56;28.08;;;6.78;;
51006;SDS011;37034;47.886;-3.904;2023-09-19T13:08:31;24.35;;;6.30;;
51006;SDS011;37034;47.886;-3.904;2023-09-19T13:11:03;29.42;;;7.35;;
51006;SDS011;37034;47.886;-3.904;2023-09-19T13:13:32;27.67;;;6.53;;
51006;SDS011;37034;47.886;-3.904;2023-09-19T13:15:58;27.73;;;7.13;;
51006;SDS011;37034;47.886;-3.904;2023-09-19T13:18:26;24.83;;;5.97;;
51006;SDS011;37034;47.886;-3.904;2023-09-19T13:21:08;31.65;;;7.10;;
51006;SDS011;37034;47.886;-3.904;2023-09-19T13:23:39;27.67;;;6.03;;
51006;SDS011;37034;47.886;-3.904;2023-09-19T13:26:09;28.33;;;6.60;;
51006;SDS011;37034;47.886;-3.904;2023-09-19T13:28:37;28.35;;;6.97;;
51006;SDS011;37034;47.886;-3.904;2023-09-19T13:31:03;35.25;;;7.13;;
51006;SDS011;37034;47.886;-3.904;2023-09-19T13:33:28;27.70;;;7.43;;
51006;SDS011;37034;47.886;-3.904;2023-09-19T13:35:54;36.83;;;7.57;;
51006;SDS011;37034;47.886;-3.904;2023-09-19T13:38:21;28.35;;;6.65;;
51006;SDS011;37034;47.886;-3.904;2023-09-19T13:40:47;41.08;;;8.18;;
51006;SDS011;37034;47.886;-3.904;2023-09-19T13:43:14;29.65;;;7.82;;
51006;SDS011;37034;47.886;-3.904;2023-09-19T13:45:40;37.03;;;7.78;;
51006;SDS011;37034;47.886;-3.904;2023-09-19T13:48:09;32.97;;;7.22;;
51006;SDS011;37034;47.886;-3.904;2023-09-19T13:50:36;28.95;;;8.07;;
51006;SDS011;37034;47.886;-3.904;2023-09-19T13:53:07;32.95;;;8.10;;
51006;SDS011;37034;47.886;-3.904;2023-09-19T13:55:35;31.88;;;7.55;;
51006;SDS011;37034;47.886;-3.904;2023-09-19T13:58:03;35.33;;;7.32;;
51006;SDS011;37034;47.886;-3.904;2023-09-19T14:00:31;28.52;;;7.53;;
51006;SDS011;37034;47.886;-3.904;2023-09-19T14:02:59;33.40;;;7.80;;
51006;SDS011;37034;47.886;-3.904;2023-09-19T14:05:26;27.13;;;7.15;;
51006;SDS011;37034;47.886;-3.904;2023-09-19T14:07:53;27.80;;;6.50;;
51006;SDS011;37034;47.886;-3.904;2023-09-19T14:10:22;27.90;;;7.68;;
51006;SDS011;37034;47.886;-3.904;2023-09-19T14:12:48;40.08;;;7.90;;
51006;SDS011;37034;47.886;-3.904;2023-09-19T14:15:13;37.70;;;7.50;;
51006;SDS011;37034;47.886;-3.904;2023-09-19T14:17:39;28.17;;;8.00;;
51006;SDS011;37034;47.886;-3.904;2023-09-19T14:20:10;26.27;;;6.85;;
51006;SDS011;37034;47.886;-3.904;2023-09-19T14:22:36;28.52;;;6.20;;
51006;SDS011;37034;47.886;-3.904;2023-09-19T14:25:04;26.80;;;6.57;;
51006;SDS011;37034;47.886;-3.904;2023-09-19T14:27:30;21.88;;;4.65;;
51006;SDS011;37034;47.886;-3.904;2023-09-19T14:29:56;21.58;;;4.60;;
51006;SDS011;37034;47.886;-3.904;2023-09-19T14:32:22;17.73;;;4.25;;
51006;SDS011;37034;47.886;-3.904;2023-09-19T14:37:14;23.33;;;6.00;;
51006;SDS011;37034;47.886;-3.904;2023-09-19T14:39:41;23.73;;;6.32;;
51006;SDS011;37034;47.886;-3.904;2023-09-19T14:42:09;27.30;;;5.07;;
51006;SDS011;37034;47.886;-3.904;2023-09-19T14:44:35;26.25;;;5.68;;
51006;SDS011;37034;47.886;-3.904;2023-09-19T14:47:02;25.00;;;5.50;;
51006;SDS011;37034;47.886;-3.904;2023-09-19T14:49:32;25.58;;;6.10;;
51006;SDS011;37034;47.886;-3.904;2023-09-19T14:51:58;22.88;;;5.40;;
51006;SDS011;37034;47.886;-3.904;2023-09-19T14:54:24;25.80;;;5.85;;
51006;SDS011;37034;47.886;-3.904;2023-09-19T14:56:50;26.95;;;6.68;;
51006;SDS011;37034;47.886;-3.904;2023-09-19T14:59:28;30.13;;;6.03;;
51006;SDS011;37034;47.886;-3.904;2023-09-19T15:01:57;24.42;;;5.90;;
51006;SDS011;37034;47.886;-3.904;2023-09-19T15:06:49;35.65;;;5.85;;
51006;SDS011;37034;47.886;-3.904;2023-09-19T15:09:16;27.95;;;5.97;;
51006;SDS011;37034;47.886;-3.904;2023-09-19T15:11:44;27.80;;;6.00;;
51006;SDS011;37034;47.886;-3.904;2023-09-19T15:14:09;24.67;;;5.85;;
51006;SDS011;37034;47.886;-3.904;2023-09-19T15:16:35;30.17;;;7.63;;
51006;SDS011;37034;47.886;-3.904;2023-09-19T15:19:01;24.60;;;6.03;;
51006;SDS011;37034;47.886;-3.904;2023-09-19T15:21:26;23.83;;;5.60;;
51006;SDS011;37034;47.886;-3.904;2023-09-19T15:23:52;21.33;;;5.40;;
51006;SDS011;37034;47.886;-3.904;2023-09-19T15:26:18;27.77;;;6.05;;
51006;SDS011;37034;47.886;-3.904;2023-09-19T15:28:45;20.45;;;5.38;;
51006;SDS011;37034;47.886;-3.904;2023-09-19T15:31:11;36.50;;;7.85;;
51006;SDS011;37034;47.886;-3.904;2023-09-19T15:33:38;33.13;;;7.32;;
51006;SDS011;37034;47.886;-3.904;2023-09-19T15:36:04;30.15;;;6.30;;
51006;SDS011;37034;47.886;-3.904;2023-09-19T15:38:31;23.83;;;5.15;;
51006;SDS011;37034;47.886;-3.904;2023-09-19T15:41:18;16.15;;;3.85;;
51006;SDS011;37034;47.886;-3.904;2023-09-19T15:43:45;10.73;;;3.20;;
51006;SDS011;37034;47.886;-3.904;2023-09-19T15:46:10;12.98;;;3.47;;
51006;SDS011;37034;47.886;-3.904;2023-09-19T15:48:36;15.95;;;3.50;;
51006;SDS011;37034;47.886;-3.904;2023-09-19T15:51:03;14.65;;;4.05;;
51006;SDS011;37034;47.886;-3.904;2023-09-19T15:53:32;15.70;;;3.72;;
51006;SDS011;37034;47.886;-3.904;2023-09-19T15:56:16;16.35;;;3.55;;
51006;SDS011;37034;47.886;-3.904;2023-09-19T15:58:43;17.92;;;4.32;;
51006;SDS011;37034;47.886;-3.904;2023-09-19T16:01:10;16.55;;;4.10;;
51006;SDS011;37034;47.886;-3.904;2023-09-19T16:03:37;13.82;;;3.63;;
51006;SDS011;37034;47.886;-3.904;2023-09-19T16:06:10;18.30;;;4.78;;
51006;SDS011;37034;47.886;-3.904;2023-09-19T16:08:43;15.88;;;3.83;;
51006;SDS011;37034;47.886;-3.904;2023-09-19T16:11:10;14.90;;;3.58;;
51006;SDS011;37034;47.886;-3.904;2023-09-19T16:13:36;15.85;;;3.63;;
51006;SDS011;37034;47.886;-3.904;2023-09-19T16:18:28;17.63;;;3.38;;